sensor_id;sensor_type;location;lat;lon;timestamp;P1;durP1;ratioP1;P2;durP2;ratioP2
2211;SDS011;48849;48.758;9.158;2023-02-17T00:01:13;7.28;;;5.63;;
2211;SDS011;48849;48.758;9.158;2023-02-17T00:03:42;6.60;;;5.18;;
2211;SDS011;48849;48.758;9.158;2023-02-17T00:06:12;7.28;;;5.70;;
2211;SDS011;48849;48.758;9.158;2023-02-17T00:08:40;6.38;;;5.78;;
2211;SDS011;48849;48.758;9.158;2023-02-17T00:11:06;6.32;;;5.40;;
2211;SDS011;48849;48.758;9.158;2023-02-17T00:13:33;7.95;;;5.72;;
2211;SDS011;48849;48.758;9.158;2023-02-17T00:16:05;6.88;;;4.72;;
2211;SDS011;48849;48.758;9.158;2023-02-17T00:18:33;5.82;;;5.22;;
2211;SDS011;48849;48.758;9.158;2023-02-17T00:20:59;8.50;;;6.00;;
2211;SDS011;48849;48.758;9.158;2023-02-17T00:23:26;6.10;;;5.25;;
2211;SDS011;48849;48.758;9.158;2023-02-17T00:25:53;5.40;;;4.90;;
2211;SDS011;48849;48.758;9.158;2023-02-17T00:28:19;7.35;;;6.20;;
2211;SDS011;48849;48.758;9.158;2023-02-17T00:30:46;7.05;;;5.60;;
2211;SDS011;48849;48.758;9.158;2023-02-17T00:33:14;6.07;;;5.47;;
2211;SDS011;48849;48.758;9.158;2023-02-17T00:35:40;5.80;;;5.30;;
2211;SDS011;48849;48.758;9.158;2023-02-17T00:38:07;6.30;;;5.15;;
2211;SDS011;48849;48.758;9.158;2023-02-17T00:40:34;5.68;;;5.13;;
2211;SDS011;48849;48.758;9.158;2023-02-17T00:43:01;6.30;;;5.70;;
2211;SDS011;48849;48.758;9.158;2023-02-17T00:45:27;6.18;;;5.57;;
2211;SDS011;48849;48.758;9.158;2023-02-17T00:47:54;7.57;;;6.05;;
2211;SDS011;48849;48.758;9.158;2023-02-17T00:50:22;6.78;;;5.43;;
2211;SDS011;48849;48.758;9.158;2023-02-17T00:52:49;8.45;;;5.20;;
2211;SDS011;48849;48.758;9.158;2023-02-17T00:55:15;6.43;;;5.38;;
2211;SDS011;48849;48.758;9.158;2023-02-17T00:57:42;5.50;;;4.97;;
2211;SDS011;48849;48.758;9.158;2023-02-17T01:00:09;5.65;;;5.10;;
2211;SDS011;48849;48.758;9.158;2023-02-17T01:02:36;6.57;;;4.85;;
2211;SDS011;48849;48.758;9.158;2023-02-17T01:05:03;6.07;;;5.43;;
2211;SDS011;48849;48.758;9.158;2023-02-17T01:07:32;6.53;;;5.30;;
2211;SDS011;48849;48.758;9.158;2023-02-17T01:09:58;8.00;;;5.30;;
2211;SDS011;48849;48.758;9.158;2023-02-17T01:12:25;5.55;;;4.95;;
2211;SDS011;48849;48.758;9.158;2023-02-17T01:14:51;9.70;;;5.50;;
2211;SDS011;48849;48.758;9.158;2023-02-17T01:17:18;6.47;;;5.53;;
2211;SDS011;48849;48.758;9.158;2023-02-17T01:19:45;6.05;;;5.45;;
2211;SDS011;48849;48.758;9.158;2023-02-17T01:22:11;12.50;;;5.43;;
2211;SDS011;48849;48.758;9.158;2023-02-17T01:24:39;6.40;;;4.78;;
2211;SDS011;48849;48.758;9.158;2023-02-17T01:27:06;5.60;;;5.00;;
2211;SDS011;48849;48.758;9.158;2023-02-17T01:29:33;6.28;;;5.13;;
2211;SDS011;48849;48.758;9.158;2023-02-17T01:32:00;7.05;;;5.68;;
2211;SDS011;48849;48.758;9.158;2023-02-17T01:34:26;5.47;;;4.90;;
2211;SDS011;48849;48.758;9.158;2023-02-17T01:36:53;5.35;;;4.38;;
2211;SDS011;48849;48.758;9.158;2023-02-17T01:39:20;5.28;;;4.47;;
2211;SDS011;48849;48.758;9.158;2023-02-17T01:41:48;5.22;;;4.72;;
2211;SDS011;48849;48.758;9.158;2023-02-17T01:44:15;6.03;;;4.82;;
2211;SDS011;48849;48.758;9.158;2023-02-17T01:46:43;6.60;;;5.28;;
2211;SDS011;48849;48.758;9.158;2023-02-17T01:49:23;6.32;;;4.43;;
2211;SDS011;48849;48.758;9.158;2023-02-17T01:51:58;5.95;;;5.10;;
2211;SDS011;48849;48.758;9.158;2023-02-17T01:54:29;6.60;;;4.88;;
2211;SDS011;48849;48.758;9.158;2023-02-17T01:57:02;8.65;;;5.00;;
2211;SDS011;48849;48.758;9.158;2023-02-17T01:59:29;5.70;;;4.70;;
2211;SDS011;48849;48.758;9.158;2023-02-17T02:01:57;6.68;;;4.43;;
2211;SDS011;48849;48.758;9.158;2023-02-17T02:04:29;6.32;;;5.13;;
2211;SDS011;48849;48.758;9.158;2023-02-17T02:06:59;6.40;;;4.93;;
2211;SDS011;48849;48.758;9.158;2023-02-17T02:09:28;7.20;;;4.90;;
2211;SDS011;48849;48.758;9.158;2023-02-17T02:11:57;6.28;;;4.35;;
2211;SDS011;48849;48.758;9.158;2023-02-17T02:14:26;6.30;;;4.45;;
2211;SDS011;48849;48.758;9.158;2023-02-17T02:16:56;5.47;;;4.93;;
2211;SDS011;48849;48.758;9.158;2023-02-17T02:25:27;4.40;;;4.00;;
2211;SDS011;48849;48.758;9.158;2023-02-17T02:28:13;6.20;;;4.90;;
2211;SDS011;48849;48.758;9.158;2023-02-17T02:30:57;4.63;;;3.90;;
2211;SDS011;48849;48.758;9.158;2023-02-17T02:33:37;5.68;;;4.88;;
2211;SDS011;48849;48.758;9.158;2023-02-17T02:36:09;5.72;;;4.20;;
2211;SDS011;48849;48.758;9.158;2023-02-17T02:38:39;4.68;;;4.28;;
2211;SDS011;48849;48.758;9.158;2023-02-17T02:41:09;7.43;;;4.10;;
2211;SDS011;48849;48.758;9.158;2023-02-17T02:43:40;6.32;;;5.20;;
2211;SDS011;48849;48.758;9.158;2023-02-17T02:46:08;8.45;;;4.80;;
2211;SDS011;48849;48.758;9.158;2023-02-17T02:48:34;5.10;;;4.60;;
2211;SDS011;48849;48.758;9.158;2023-02-17T02:51:15;5.00;;;4.50;;
2211;SDS011;48849;48.758;9.158;2023-02-17T02:54:01;5.07;;;4.57;;
2211;SDS011;48849;48.758;9.158;2023-02-17T02:56:51;5.80;;;4.40;;
2211;SDS011;48849;48.758;9.158;2023-02-17T02:59:40;7.80;;;4.38;;
2211;SDS011;48849;48.758;9.158;2023-02-17T03:02:15;6.50;;;4.40;;
2211;SDS011;48849;48.758;9.158;2023-02-17T03:04:50;5.05;;;4.35;;
2211;SDS011;48849;48.758;9.158;2023-02-17T03:07:21;5.20;;;4.70;;
2211;SDS011;48849;48.758;9.158;2023-02-17T03:09:51;5.25;;;4.20;;
2211;SDS011;48849;48.758;9.158;2023-02-17T03:12:23;4.65;;;3.67;;
2211;SDS011;48849;48.758;9.158;2023-02-17T03:14:52;5.38;;;4.10;;
2211;SDS011;48849;48.758;9.158;2023-02-17T03:17:21;4.80;;;4.35;;
2211;SDS011;48849;48.758;9.158;2023-02-17T03:19:47;8.65;;;4.45;;
2211;SDS011;48849;48.758;9.158;2023-02-17T03:22:16;4.60;;;3.78;;
2211;SDS011;48849;48.758;9.158;2023-02-17T03:24:46;4.57;;;3.92;;
2211;SDS011;48849;48.758;9.158;2023-02-17T03:27:13;7.88;;;4.40;;
2211;SDS011;48849;48.758;9.158;2023-02-17T03:29:40;4.38;;;4.05;;
2211;SDS011;48849;48.758;9.158;2023-02-17T03:32:07;6.50;;;4.15;;
2211;SDS011;48849;48.758;9.158;2023-02-17T03:34:33;4.75;;;4.22;;
2211;SDS011;48849;48.758;9.158;2023-02-17T03:37:00;4.82;;;4.35;;
2211;SDS011;48849;48.758;9.158;2023-02-17T03:39:28;6.35;;;4.80;;
2211;SDS011;48849;48.758;9.158;2023-02-17T03:41:55;7.07;;;5.00;;
2211;SDS011;48849;48.758;9.158;2023-02-17T03:44:22;4.22;;;3.83;;
2211;SDS011;48849;48.758;9.158;2023-02-17T03:46:49;4.55;;;4.15;;
2211;SDS011;48849;48.758;9.158;2023-02-17T03:49:15;4.72;;;3.80;;
2211;SDS011;48849;48.758;9.158;2023-02-17T03:51:42;7.35;;;4.65;;
2211;SDS011;48849;48.758;9.158;2023-02-17T03:54:09;5.65;;;4.13;;
2211;SDS011;48849;48.758;9.158;2023-02-17T03:56:37;8.32;;;4.60;;
2211;SDS011;48849;48.758;9.158;2023-02-17T03:59:04;5.32;;;4.45;;
2211;SDS011;48849;48.758;9.158;2023-02-17T04:01:30;5.35;;;4.85;;
2211;SDS011;48849;48.758;9.158;2023-02-17T04:03:57;10.98;;;4.60;;
2211;SDS011;48849;48.758;9.158;2023-02-17T04:06:24;5.28;;;4.05;;
2211;SDS011;48849;48.758;9.158;2023-02-17T04:08:51;5.10;;;4.60;;
2211;SDS011;48849;48.758;9.158;2023-02-17T04:11:17;4.22;;;3.83;;
2211;SDS011;48849;48.758;9.158;2023-02-17T04:13:45;6.68;;;4.50;;
2211;SDS011;48849;48.758;9.158;2023-02-17T04:16:12;5.38;;;4.15;;
2211;SDS011;48849;48.758;9.158;2023-02-17T04:18:39;6.03;;;4.78;;
2211;SDS011;48849;48.758;9.158;2023-02-17T04:21:06;6.30;;;4.40;;
2211;SDS011;48849;48.758;9.158;2023-02-17T04:23:33;7.15;;;4.47;;
2211;SDS011;48849;48.758;9.158;2023-02-17T04:26:00;5.00;;;3.85;;
2211;SDS011;48849;48.758;9.158;2023-02-17T04:28:26;6.03;;;4.40;;
2211;SDS011;48849;48.758;9.158;2023-02-17T04:30:56;5.80;;;5.00;;
2211;SDS011;48849;48.758;9.158;2023-02-17T04:33:23;5.97;;;4.45;;
2211;SDS011;48849;48.758;9.158;2023-02-17T04:35:50;5.15;;;4.63;;
2211;SDS011;48849;48.758;9.158;2023-02-17T04:38:23;4.45;;;4.03;;
2211;SDS011;48849;48.758;9.158;2023-02-17T04:40:51;8.55;;;4.20;;
2211;SDS011;48849;48.758;9.158;2023-02-17T04:43:18;9.70;;;5.28;;
2211;SDS011;48849;48.758;9.158;2023-02-17T04:45:45;6.13;;;4.45;;
2211;SDS011;48849;48.758;9.158;2023-02-17T04:48:13;5.80;;;3.88;;
2211;SDS011;48849;48.758;9.158;2023-02-17T04:50:39;6.75;;;5.07;;
2211;SDS011;48849;48.758;9.158;2023-02-17T04:53:06;4.60;;;4.13;;
2211;SDS011;48849;48.758;9.158;2023-02-17T04:55:33;4.63;;;4.15;;
2211;SDS011;48849;48.758;9.158;2023-02-17T04:57:59;8.90;;;4.53;;
2211;SDS011;48849;48.758;9.158;2023-02-17T05:00:26;4.50;;;4.10;;
2211;SDS011;48849;48.758;9.158;2023-02-17T05:02:53;4.43;;;3.88;;
2211;SDS011;48849;48.758;9.158;2023-02-17T05:05:21;6.43;;;4.90;;
2211;SDS011;48849;48.758;9.158;2023-02-17T05:07:48;7.25;;;4.60;;
2211;SDS011;48849;48.758;9.158;2023-02-17T05:10:15;4.55;;;4.13;;
2211;SDS011;48849;48.758;9.158;2023-02-17T05:12:42;6.03;;;4.43;;
2211;SDS011;48849;48.758;9.158;2023-02-17T05:15:10;5.72;;;4.78;;
2211;SDS011;48849;48.758;9.158;2023-02-17T05:17:37;7.50;;;4.65;;
2211;SDS011;48849;48.758;9.158;2023-02-17T05:20:05;5.93;;;4.57;;
2211;SDS011;48849;48.758;9.158;2023-02-17T05:22:34;5.53;;;4.00;;
2211;SDS011;48849;48.758;9.158;2023-02-17T05:25:01;5.63;;;4.20;;
2211;SDS011;48849;48.758;9.158;2023-02-17T05:27:27;5.35;;;4.00;;
2211;SDS011;48849;48.758;9.158;2023-02-17T05:29:54;4.35;;;3.95;;
2211;SDS011;48849;48.758;9.158;2023-02-17T05:32:21;4.00;;;3.38;;
2211;SDS011;48849;48.758;9.158;2023-02-17T05:34:48;7.22;;;4.63;;
2211;SDS011;48849;48.758;9.158;2023-02-17T05:37:14;5.50;;;4.30;;
2211;SDS011;48849;48.758;9.158;2023-02-17T05:39:42;6.32;;;4.60;;
2211;SDS011;48849;48.758;9.158;2023-02-17T05:42:09;5.72;;;4.35;;
2211;SDS011;48849;48.758;9.158;2023-02-17T05:44:36;5.65;;;4.13;;
2211;SDS011;48849;48.758;9.158;2023-02-17T05:47:02;6.68;;;4.75;;
2211;SDS011;48849;48.758;9.158;2023-02-17T05:49:29;5.30;;;3.60;;
2211;SDS011;48849;48.758;9.158;2023-02-17T05:51:56;5.75;;;4.70;;
2211;SDS011;48849;48.758;9.158;2023-02-17T05:54:23;4.35;;;3.95;;
2211;SDS011;48849;48.758;9.158;2023-02-17T05:56:51;6.22;;;4.00;;
2211;SDS011;48849;48.758;9.158;2023-02-17T05:59:17;7.07;;;4.65;;
2211;SDS011;48849;48.758;9.158;2023-02-17T06:01:44;4.85;;;4.25;;
2211;SDS011;48849;48.758;9.158;2023-02-17T06:04:11;4.55;;;4.05;;
2211;SDS011;48849;48.758;9.158;2023-02-17T06:06:37;12.80;;;4.97;;
2211;SDS011;48849;48.758;9.158;2023-02-17T06:09:04;4.22;;;3.92;;
2211;SDS011;48849;48.758;9.158;2023-02-17T06:11:31;5.65;;;4.03;;
2211;SDS011;48849;48.758;9.158;2023-02-17T06:13:59;5.80;;;4.28;;
2211;SDS011;48849;48.758;9.158;2023-02-17T06:16:26;5.97;;;4.85;;
2211;SDS011;48849;48.758;9.158;2023-02-17T06:18:53;8.63;;;5.63;;
2211;SDS011;48849;48.758;9.158;2023-02-17T06:21:19;6.00;;;5.43;;
2211;SDS011;48849;48.758;9.158;2023-02-17T06:23:46;6.63;;;4.90;;
2211;SDS011;48849;48.758;9.158;2023-02-17T06:26:13;6.32;;;5.07;;
2211;SDS011;48849;48.758;9.158;2023-02-17T06:28:39;9.20;;;5.10;;
2211;SDS011;48849;48.758;9.158;2023-02-17T06:31:07;6.15;;;5.07;;
2211;SDS011;48849;48.758;9.158;2023-02-17T06:33:34;6.15;;;4.70;;
2211;SDS011;48849;48.758;9.158;2023-02-17T06:36:01;7.75;;;4.78;;
2211;SDS011;48849;48.758;9.158;2023-02-17T06:38:28;6.18;;;4.75;;
2211;SDS011;48849;48.758;9.158;2023-02-17T06:40:54;7.40;;;4.60;;
2211;SDS011;48849;48.758;9.158;2023-02-17T06:43:21;8.18;;;4.43;;
2211;SDS011;48849;48.758;9.158;2023-02-17T06:45:48;7.03;;;5.00;;
2211;SDS011;48849;48.758;9.158;2023-02-17T06:48:16;5.90;;;4.13;;
2211;SDS011;48849;48.758;9.158;2023-02-17T06:50:42;4.65;;;4.22;;
2211;SDS011;48849;48.758;9.158;2023-02-17T06:53:09;6.43;;;4.82;;
2211;SDS011;48849;48.758;9.158;2023-02-17T06:55:36;4.60;;;3.95;;
2211;SDS011;48849;48.758;9.158;2023-02-17T06:58:03;5.00;;;4.20;;
2211;SDS011;48849;48.758;9.158;2023-02-17T07:00:31;5.25;;;4.75;;
2211;SDS011;48849;48.758;9.158;2023-02-17T07:02:58;8.88;;;5.40;;
2211;SDS011;48849;48.758;9.158;2023-02-17T07:05:26;6.68;;;4.30;;
2211;SDS011;48849;48.758;9.158;2023-02-17T07:07:53;10.80;;;5.15;;
2211;SDS011;48849;48.758;9.158;2023-02-17T07:10:22;5.00;;;4.50;;
2211;SDS011;48849;48.758;9.158;2023-02-17T07:12:49;9.25;;;4.97;;
2211;SDS011;48849;48.758;9.158;2023-02-17T07:15:16;8.23;;;4.70;;
2211;SDS011;48849;48.758;9.158;2023-02-17T07:17:42;4.82;;;4.25;;
2211;SDS011;48849;48.758;9.158;2023-02-17T07:20:10;6.80;;;5.00;;
2211;SDS011;48849;48.758;9.158;2023-02-17T07:22:38;4.72;;;4.20;;
2211;SDS011;48849;48.758;9.158;2023-02-17T07:25:05;4.55;;;4.10;;
2211;SDS011;48849;48.758;9.158;2023-02-17T07:27:33;5.18;;;4.53;;
2211;SDS011;48849;48.758;9.158;2023-02-17T07:30:00;4.90;;;4.40;;
2211;SDS011;48849;48.758;9.158;2023-02-17T07:32:27;6.18;;;4.47;;
2211;SDS011;48849;48.758;9.158;2023-02-17T07:34:54;7.30;;;4.35;;
2211;SDS011;48849;48.758;9.158;2023-02-17T07:37:21;6.15;;;4.55;;
2211;SDS011;48849;48.758;9.158;2023-02-17T07:39:49;4.22;;;3.83;;
2211;SDS011;48849;48.758;9.158;2023-02-17T07:42:16;5.30;;;4.45;;
2211;SDS011;48849;48.758;9.158;2023-02-17T07:44:43;5.45;;;4.13;;
2211;SDS011;48849;48.758;9.158;2023-02-17T07:47:10;6.28;;;4.03;;
2211;SDS011;48849;48.758;9.158;2023-02-17T07:49:36;5.57;;;4.30;;
2211;SDS011;48849;48.758;9.158;2023-02-17T07:52:04;3.95;;;3.10;;
2211;SDS011;48849;48.758;9.158;2023-02-17T07:54:30;5.10;;;4.15;;
2211;SDS011;48849;48.758;9.158;2023-02-17T07:56:59;5.30;;;4.10;;
2211;SDS011;48849;48.758;9.158;2023-02-17T07:59:25;5.05;;;4.00;;
2211;SDS011;48849;48.758;9.158;2023-02-17T08:01:52;3.95;;;3.55;;
2211;SDS011;48849;48.758;9.158;2023-02-17T08:04:19;4.45;;;3.60;;
2211;SDS011;48849;48.758;9.158;2023-02-17T08:06:45;4.53;;;4.00;;
2211;SDS011;48849;48.758;9.158;2023-02-17T08:09:12;4.25;;;3.67;;
2211;SDS011;48849;48.758;9.158;2023-02-17T08:11:56;4.72;;;4.22;;
2211;SDS011;48849;48.758;9.158;2023-02-17T08:14:42;6.25;;;4.18;;
2211;SDS011;48849;48.758;9.158;2023-02-17T08:17:09;4.05;;;3.60;;
2211;SDS011;48849;48.758;9.158;2023-02-17T08:19:36;7.65;;;3.58;;
2211;SDS011;48849;48.758;9.158;2023-02-17T08:22:03;4.40;;;3.45;;
2211;SDS011;48849;48.758;9.158;2023-02-17T08:24:29;6.35;;;4.05;;
2211;SDS011;48849;48.758;9.158;2023-02-17T08:26:56;5.07;;;3.60;;
2211;SDS011;48849;48.758;9.158;2023-02-17T08:29:24;4.85;;;4.22;;
2211;SDS011;48849;48.758;9.158;2023-02-17T08:31:51;4.55;;;3.35;;
2211;SDS011;48849;48.758;9.158;2023-02-17T08:34:18;3.78;;;3.13;;
2211;SDS011;48849;48.758;9.158;2023-02-17T08:36:45;3.65;;;3.35;;
2211;SDS011;48849;48.758;9.158;2023-02-17T08:39:13;4.22;;;3.45;;
2211;SDS011;48849;48.758;9.158;2023-02-17T08:41:41;3.50;;;3.10;;
2211;SDS011;48849;48.758;9.158;2023-02-17T08:44:09;4.97;;;3.50;;
2211;SDS011;48849;48.758;9.158;2023-02-17T08:46:38;3.90;;;3.05;;
2211;SDS011;48849;48.758;9.158;2023-02-17T08:49:06;8.27;;;4.13;;
2211;SDS011;48849;48.758;9.158;2023-02-17T08:51:33;4.07;;;3.35;;
2211;SDS011;48849;48.758;9.158;2023-02-17T08:54:00;4.40;;;3.15;;
2211;SDS011;48849;48.758;9.158;2023-02-17T08:56:29;3.70;;;3.40;;
2211;SDS011;48849;48.758;9.158;2023-02-17T08:58:55;5.35;;;3.40;;
2211;SDS011;48849;48.758;9.158;2023-02-17T09:01:22;3.95;;;3.55;;
2211;SDS011;48849;48.758;9.158;2023-02-17T09:03:51;4.55;;;3.47;;
2211;SDS011;48849;48.758;9.158;2023-02-17T09:06:19;5.22;;;3.17;;
2211;SDS011;48849;48.758;9.158;2023-02-17T09:08:46;4.28;;;3.28;;
2211;SDS011;48849;48.758;9.158;2023-02-17T09:11:14;3.97;;;3.10;;
2211;SDS011;48849;48.758;9.158;2023-02-17T09:13:43;3.72;;;3.00;;
2211;SDS011;48849;48.758;9.158;2023-02-17T09:16:10;3.40;;;3.10;;
2211;SDS011;48849;48.758;9.158;2023-02-17T09:18:37;4.80;;;3.15;;
2211;SDS011;48849;48.758;9.158;2023-02-17T09:21:06;3.20;;;2.90;;
2211;SDS011;48849;48.758;9.158;2023-02-17T09:23:34;2.97;;;2.78;;
2211;SDS011;48849;48.758;9.158;2023-02-17T09:26:01;4.20;;;3.03;;
2211;SDS011;48849;48.758;9.158;2023-02-17T09:28:29;5.63;;;3.15;;
2211;SDS011;48849;48.758;9.158;2023-02-17T09:30:56;3.75;;;3.45;;
2211;SDS011;48849;48.758;9.158;2023-02-17T09:33:23;5.07;;;3.75;;
2211;SDS011;48849;48.758;9.158;2023-02-17T09:35:49;3.85;;;3.22;;
2211;SDS011;48849;48.758;9.158;2023-02-17T09:38:18;5.53;;;3.20;;
2211;SDS011;48849;48.758;9.158;2023-02-17T09:40:45;4.88;;;3.30;;
2211;SDS011;48849;48.758;9.158;2023-02-17T09:43:14;3.92;;;2.97;;
2211;SDS011;48849;48.758;9.158;2023-02-17T09:45:43;5.53;;;3.38;;
2211;SDS011;48849;48.758;9.158;2023-02-17T09:48:14;3.67;;;2.92;;
2211;SDS011;48849;48.758;9.158;2023-02-17T09:50:45;3.10;;;2.80;;
2211;SDS011;48849;48.758;9.158;2023-02-17T09:53:21;3.38;;;2.95;;
2211;SDS011;48849;48.758;9.158;2023-02-17T09:55:54;5.03;;;2.90;;
2211;SDS011;48849;48.758;9.158;2023-02-17T09:58:24;3.85;;;3.20;;
2211;SDS011;48849;48.758;9.158;2023-02-17T10:00:56;2.83;;;2.63;;
2211;SDS011;48849;48.758;9.158;2023-02-17T10:03:28;2.97;;;2.60;;
2211;SDS011;48849;48.758;9.158;2023-02-17T10:06:01;3.10;;;2.90;;
2211;SDS011;48849;48.758;9.158;2023-02-17T10:08:37;3.67;;;3.38;;
2211;SDS011;48849;48.758;9.158;2023-02-17T10:11:13;4.85;;;2.78;;
2211;SDS011;48849;48.758;9.158;2023-02-17T10:13:47;3.50;;;2.63;;
2211;SDS011;48849;48.758;9.158;2023-02-17T10:16:20;3.03;;;2.47;;
2211;SDS011;48849;48.758;9.158;2023-02-17T10:18:51;5.05;;;2.80;;
2211;SDS011;48849;48.758;9.158;2023-02-17T10:21:25;3.22;;;2.90;;
2211;SDS011;48849;48.758;9.158;2023-02-17T10:23:55;4.32;;;2.63;;
2211;SDS011;48849;48.758;9.158;2023-02-17T10:26:23;3.00;;;2.50;;
2211;SDS011;48849;48.758;9.158;2023-02-17T10:29:04;2.63;;;2.42;;
2211;SDS011;48849;48.758;9.158;2023-02-17T10:31:35;3.10;;;2.80;;
2211;SDS011;48849;48.758;9.158;2023-02-17T10:34:12;3.00;;;2.70;;
2211;SDS011;48849;48.758;9.158;2023-02-17T10:36:47;3.75;;;2.53;;
2211;SDS011;48849;48.758;9.158;2023-02-17T10:39:27;4.82;;;3.10;;
2211;SDS011;48849;48.758;9.158;2023-02-17T10:42:02;3.83;;;2.90;;
2211;SDS011;48849;48.758;9.158;2023-02-17T10:44:30;3.80;;;2.50;;
2211;SDS011;48849;48.758;9.158;2023-02-17T10:47:01;5.13;;;2.60;;
2211;SDS011;48849;48.758;9.158;2023-02-17T10:49:29;2.90;;;2.17;;
2211;SDS011;48849;48.758;9.158;2023-02-17T10:52:00;3.13;;;2.50;;
2211;SDS011;48849;48.758;9.158;2023-02-17T10:54:36;3.92;;;2.50;;
2211;SDS011;48849;48.758;9.158;2023-02-17T10:57:07;3.47;;;2.28;;
2211;SDS011;48849;48.758;9.158;2023-02-17T10:59:38;3.25;;;2.58;;
2211;SDS011;48849;48.758;9.158;2023-02-17T11:02:12;3.60;;;2.38;;
2211;SDS011;48849;48.758;9.158;2023-02-17T11:04:42;5.22;;;2.50;;
2211;SDS011;48849;48.758;9.158;2023-02-17T11:07:11;4.57;;;2.53;;
2211;SDS011;48849;48.758;9.158;2023-02-17T11:09:45;2.60;;;2.40;;
2211;SDS011;48849;48.758;9.158;2023-02-17T11:12:15;3.95;;;2.42;;
2211;SDS011;48849;48.758;9.158;2023-02-17T11:14:47;2.25;;;2.05;;
2211;SDS011;48849;48.758;9.158;2023-02-17T11:17:17;4.30;;;1.77;;
2211;SDS011;48849;48.758;9.158;2023-02-17T11:19:56;1.95;;;1.75;;
2211;SDS011;48849;48.758;9.158;2023-02-17T11:22:26;2.30;;;2.10;;
2211;SDS011;48849;48.758;9.158;2023-02-17T11:24:59;2.15;;;1.77;;
2211;SDS011;48849;48.758;9.158;2023-02-17T11:27:28;2.38;;;1.85;;
2211;SDS011;48849;48.758;9.158;2023-02-17T11:30:03;1.85;;;1.70;;
2211;SDS011;48849;48.758;9.158;2023-02-17T11:32:31;3.10;;;1.80;;
2211;SDS011;48849;48.758;9.158;2023-02-17T11:34:58;2.00;;;1.50;;
2211;SDS011;48849;48.758;9.158;2023-02-17T11:37:28;1.90;;;1.67;;
2211;SDS011;48849;48.758;9.158;2023-02-17T11:39:56;1.92;;;1.73;;
2211;SDS011;48849;48.758;9.158;2023-02-17T11:42:26;1.40;;;1.30;;
2211;SDS011;48849;48.758;9.158;2023-02-17T11:44:55;1.60;;;1.30;;
2211;SDS011;48849;48.758;9.158;2023-02-17T11:47:24;1.85;;;1.67;;
2211;SDS011;48849;48.758;9.158;2023-02-17T11:50:02;2.40;;;1.42;;
2211;SDS011;48849;48.758;9.158;2023-02-17T11:52:56;4.82;;;1.88;;
2211;SDS011;48849;48.758;9.158;2023-02-17T11:55:37;2.20;;;1.48;;
2211;SDS011;48849;48.758;9.158;2023-02-17T11:58:16;2.35;;;1.27;;
2211;SDS011;48849;48.758;9.158;2023-02-17T12:00:52;2.42;;;1.50;;
2211;SDS011;48849;48.758;9.158;2023-02-17T12:06:13;2.85;;;1.70;;
2211;SDS011;48849;48.758;9.158;2023-02-17T12:08:48;1.83;;;1.50;;
2211;SDS011;48849;48.758;9.158;2023-02-17T12:11:25;4.72;;;1.63;;
2211;SDS011;48849;48.758;9.158;2023-02-17T12:14:00;1.40;;;1.25;;
2211;SDS011;48849;48.758;9.158;2023-02-17T12:16:38;1.95;;;1.60;;
2211;SDS011;48849;48.758;9.158;2023-02-17T12:19:16;1.45;;;1.35;;
2211;SDS011;48849;48.758;9.158;2023-02-17T12:21:54;2.97;;;1.52;;
2211;SDS011;48849;48.758;9.158;2023-02-17T12:24:31;3.08;;;1.42;;
2211;SDS011;48849;48.758;9.158;2023-02-17T12:27:10;4.10;;;1.60;;
2211;SDS011;48849;48.758;9.158;2023-02-17T12:29:58;1.65;;;1.50;;
2211;SDS011;48849;48.758;9.158;2023-02-17T12:32:44;1.45;;;1.35;;
2211;SDS011;48849;48.758;9.158;2023-02-17T12:35:22;3.80;;;3.38;;
2211;SDS011;48849;48.758;9.158;2023-02-17T12:37:51;4.68;;;2.50;;
2211;SDS011;48849;48.758;9.158;2023-02-17T12:40:27;2.90;;;2.15;;
2211;SDS011;48849;48.758;9.158;2023-02-17T12:43:00;1.92;;;1.83;;
2211;SDS011;48849;48.758;9.158;2023-02-17T12:45:36;2.13;;;1.80;;
2211;SDS011;48849;48.758;9.158;2023-02-17T12:48:09;1.67;;;1.58;;
2211;SDS011;48849;48.758;9.158;2023-02-17T12:50:42;2.15;;;1.90;;
2211;SDS011;48849;48.758;9.158;2023-02-17T12:53:16;1.92;;;1.50;;
2211;SDS011;48849;48.758;9.158;2023-02-17T12:55:49;1.65;;;1.55;;
2211;SDS011;48849;48.758;9.158;2023-02-17T12:58:24;1.80;;;1.30;;
2211;SDS011;48849;48.758;9.158;2023-02-17T13:00:53;2.35;;;1.55;;
2211;SDS011;48849;48.758;9.158;2023-02-17T13:03:27;2.08;;;1.88;;
2211;SDS011;48849;48.758;9.158;2023-02-17T13:05:55;2.78;;;1.98;;
2211;SDS011;48849;48.758;9.158;2023-02-17T13:08:28;1.88;;;1.67;;
2211;SDS011;48849;48.758;9.158;2023-02-17T13:11:02;2.33;;;1.60;;
2211;SDS011;48849;48.758;9.158;2023-02-17T13:13:32;1.70;;;1.60;;
2211;SDS011;48849;48.758;9.158;2023-02-17T13:16:00;2.10;;;1.70;;
2211;SDS011;48849;48.758;9.158;2023-02-17T13:18:30;1.45;;;1.35;;
2211;SDS011;48849;48.758;9.158;2023-02-17T13:20:59;1.70;;;1.30;;
2211;SDS011;48849;48.758;9.158;2023-02-17T13:23:32;2.28;;;1.67;;
2211;SDS011;48849;48.758;9.158;2023-02-17T13:26:10;2.40;;;1.40;;
2211;SDS011;48849;48.758;9.158;2023-02-17T13:29:15;3.05;;;1.75;;
2211;SDS011;48849;48.758;9.158;2023-02-17T13:31:49;3.05;;;1.70;;
2211;SDS011;48849;48.758;9.158;2023-02-17T13:34:25;1.83;;;1.10;;
2211;SDS011;48849;48.758;9.158;2023-02-17T13:36:53;2.15;;;1.33;;
2211;SDS011;48849;48.758;9.158;2023-02-17T13:39:34;1.77;;;1.30;;
2211;SDS011;48849;48.758;9.158;2023-02-17T13:42:02;1.92;;;1.30;;
2211;SDS011;48849;48.758;9.158;2023-02-17T13:44:33;1.77;;;1.45;;
2211;SDS011;48849;48.758;9.158;2023-02-17T13:47:05;2.28;;;1.58;;
2211;SDS011;48849;48.758;9.158;2023-02-17T13:49:38;1.55;;;1.23;;
2211;SDS011;48849;48.758;9.158;2023-02-17T13:52:08;3.92;;;1.48;;
2211;SDS011;48849;48.758;9.158;2023-02-17T13:54:49;1.63;;;1.30;;
2211;SDS011;48849;48.758;9.158;2023-02-17T13:57:21;1.75;;;1.30;;
2211;SDS011;48849;48.758;9.158;2023-02-17T13:59:50;3.50;;;1.38;;
2211;SDS011;48849;48.758;9.158;2023-02-17T14:02:17;1.85;;;1.27;;
2211;SDS011;48849;48.758;9.158;2023-02-17T14:04:45;1.50;;;1.27;;
2211;SDS011;48849;48.758;9.158;2023-02-17T14:07:12;1.50;;;1.40;;
2211;SDS011;48849;48.758;9.158;2023-02-17T14:09:38;1.77;;;1.45;;
2211;SDS011;48849;48.758;9.158;2023-02-17T14:12:10;3.35;;;1.30;;
2211;SDS011;48849;48.758;9.158;2023-02-17T14:14:47;2.50;;;1.42;;
2211;SDS011;48849;48.758;9.158;2023-02-17T14:17:26;1.70;;;1.60;;
2211;SDS011;48849;48.758;9.158;2023-02-17T14:19:54;2.00;;;1.27;;
2211;SDS011;48849;48.758;9.158;2023-02-17T14:22:22;2.08;;;1.35;;
2211;SDS011;48849;48.758;9.158;2023-02-17T14:24:59;1.92;;;1.40;;
2211;SDS011;48849;48.758;9.158;2023-02-17T14:27:27;2.97;;;1.48;;
2211;SDS011;48849;48.758;9.158;2023-02-17T14:29:54;2.72;;;1.95;;
2211;SDS011;48849;48.758;9.158;2023-02-17T14:32:29;2.55;;;1.92;;
2211;SDS011;48849;48.758;9.158;2023-02-17T14:35:06;1.40;;;1.27;;
2211;SDS011;48849;48.758;9.158;2023-02-17T14:37:35;2.17;;;1.50;;
2211;SDS011;48849;48.758;9.158;2023-02-17T14:40:02;2.60;;;1.70;;
2211;SDS011;48849;48.758;9.158;2023-02-17T14:42:29;4.55;;;2.25;;
2211;SDS011;48849;48.758;9.158;2023-02-17T14:44:56;2.63;;;1.58;;
2211;SDS011;48849;48.758;9.158;2023-02-17T14:47:23;2.30;;;1.75;;
2211;SDS011;48849;48.758;9.158;2023-02-17T14:49:51;2.58;;;1.88;;
2211;SDS011;48849;48.758;9.158;2023-02-17T14:52:18;2.95;;;1.63;;
2211;SDS011;48849;48.758;9.158;2023-02-17T14:54:46;1.90;;;1.65;;
2211;SDS011;48849;48.758;9.158;2023-02-17T14:57:14;2.60;;;2.28;;
2211;SDS011;48849;48.758;9.158;2023-02-17T14:59:41;4.53;;;2.40;;
2211;SDS011;48849;48.758;9.158;2023-02-17T15:02:11;3.42;;;2.33;;
2211;SDS011;48849;48.758;9.158;2023-02-17T15:04:39;2.30;;;2.10;;
2211;SDS011;48849;48.758;9.158;2023-02-17T15:07:08;3.33;;;1.95;;
2211;SDS011;48849;48.758;9.158;2023-02-17T15:09:37;3.75;;;2.63;;
2211;SDS011;48849;48.758;9.158;2023-02-17T15:12:05;4.70;;;2.63;;
2211;SDS011;48849;48.758;9.158;2023-02-17T15:14:38;5.72;;;2.80;;
2211;SDS011;48849;48.758;9.158;2023-02-17T15:17:05;3.78;;;2.80;;
2211;SDS011;48849;48.758;9.158;2023-02-17T15:19:31;2.83;;;2.50;;
2211;SDS011;48849;48.758;9.158;2023-02-17T15:21:58;3.42;;;3.10;;
2211;SDS011;48849;48.758;9.158;2023-02-17T15:24:29;2.78;;;2.55;;